sensor_id;sensor_type;location;lat;lon;timestamp;temperature;humidity
68439;SHT31;55421;51.600;5.718;2022-10-22T00:02:11;15.17;83.33
68439;SHT31;55421;51.600;5.718;2022-10-22T00:04:41;15.18;83.34
68439;SHT31;55421;51.600;5.718;2022-10-22T00:07:07;15.15;83.19
68439;SHT31;55421;51.600;5.718;2022-10-22T00:09:34;15.12;83.20
68439;SHT31;55421;51.600;5.718;2022-10-22T00:12:00;15.08;83.32
68439;SHT31;55421;51.600;5.718;2022-10-22T00:14:27;15.07;83.43
68439;SHT31;55421;51.600;5.718;2022-10-22T00:16:53;15.07;83.51
68439;SHT31;55421;51.600;5.718;2022-10-22T00:19:21;15.07;83.50
68439;SHT31;55421;51.600;5.718;2022-10-22T00:21:47;15.07;83.56
68439;SHT31;55421;51.600;5.718;2022-10-22T00:24:14;15.06;83.52
68439;SHT31;55421;51.600;5.718;2022-10-22T00:26:40;15.04;83.50
68439;SHT31;55421;51.600;5.718;2022-10-22T00:29:07;15.03;83.52
68439;SHT31;55421;51.600;5.718;2022-10-22T00:31:33;15.02;83.50
68439;SHT31;55421;51.600;5.718;2022-10-22T00:34:00;15.03;83.50
68439;SHT31;55421;51.600;5.718;2022-10-22T00:36:27;15.03;83.50
68439;SHT31;55421;51.600;5.718;2022-10-22T00:38:54;15.02;83.50
68439;SHT31;55421;51.600;5.718;2022-10-22T00:41:20;15.01;83.43
68439;SHT31;55421;51.600;5.718;2022-10-22T00:43:54;14.97;83.47
68439;SHT31;55421;51.600;5.718;2022-10-22T00:46:29;14.96;83.54
68439;SHT31;55421;51.600;5.718;2022-10-22T00:48:57;14.97;83.56
68439;SHT31;55421;51.600;5.718;2022-10-22T00:51:29;14.98;83.57
68439;SHT31;55421;51.600;5.718;2022-10-22T00:54:03;14.98;83.69
68439;SHT31;55421;51.600;5.718;2022-10-22T00:56:33;14.98;83.80
68439;SHT31;55421;51.600;5.718;2022-10-22T00:59:00;14.97;83.71
68439;SHT31;55421;51.600;5.718;2022-10-22T01:01:29;14.95;83.71
68439;SHT31;55421;51.600;5.718;2022-10-22T01:03:57;14.95;83.72
68439;SHT31;55421;51.600;5.718;2022-10-22T01:06:25;14.94;83.76
68439;SHT31;55421;51.600;5.718;2022-10-22T01:14:27;14.86;83.91
68439;SHT31;55421;51.600;5.718;2022-10-22T01:19:49;14.81;84.06
68439;SHT31;55421;51.600;5.718;2022-10-22T01:26:04;14.83;84.20
68439;SHT31;55421;51.600;5.718;2022-10-22T01:31:34;14.77;84.10
68439;SHT31;55421;51.600;5.718;2022-10-22T01:34:09;14.75;84.15
68439;SHT31;55421;51.600;5.718;2022-10-22T01:36:40;14.72;84.23
68439;SHT31;55421;51.600;5.718;2022-10-22T01:39:09;14.70;84.33
68439;SHT31;55421;51.600;5.718;2022-10-22T01:41:42;14.70;84.39
68439;SHT31;55421;51.600;5.718;2022-10-22T01:44:29;14.67;84.39
68439;SHT31;55421;51.600;5.718;2022-10-22T01:47:14;14.65;84.40
68439;SHT31;55421;51.600;5.718;2022-10-22T01:59:02;14.69;84.62
68439;SHT31;55421;51.600;5.718;2022-10-22T02:04:53;14.72;84.62
68439;SHT31;55421;51.600;5.718;2022-10-22T02:07:40;14.74;84.61
68439;SHT31;55421;51.600;5.718;2022-10-22T02:10:14;14.73;84.56
68439;SHT31;55421;51.600;5.718;2022-10-22T02:12:43;14.73;84.59
68439;SHT31;55421;51.600;5.718;2022-10-22T02:15:16;14.73;84.52
68439;SHT31;55421;51.600;5.718;2022-10-22T02:17:45;14.73;84.55
68439;SHT31;55421;51.600;5.718;2022-10-22T02:20:20;14.73;84.53
68439;SHT31;55421;51.600;5.718;2022-10-22T02:22:52;14.72;84.54
68439;SHT31;55421;51.600;5.718;2022-10-22T02:25:21;14.70;84.59
68439;SHT31;55421;51.600;5.718;2022-10-22T02:27:52;14.68;84.60
68439;SHT31;55421;51.600;5.718;2022-10-22T02:30:40;14.68;84.58
68439;SHT31;55421;51.600;5.718;2022-10-22T02:33:18;14.65;84.58
68439;SHT31;55421;51.600;5.718;2022-10-22T02:35:49;14.62;84.66
68439;SHT31;55421;51.600;5.718;2022-10-22T02:38:18;14.61;84.71
68439;SHT31;55421;51.600;5.718;2022-10-22T02:40:45;14.61;84.66
68439;SHT31;55421;51.600;5.718;2022-10-22T02:43:12;14.60;84.69
68439;SHT31;55421;51.600;5.718;2022-10-22T02:45:39;14.57;84.60
68439;SHT31;55421;51.600;5.718;2022-10-22T02:48:05;14.55;84.62
68439;SHT31;55421;51.600;5.718;2022-10-22T02:50:32;14.56;84.74
68439;SHT31;55421;51.600;5.718;2022-10-22T02:52:58;14.56;84.66
68439;SHT31;55421;51.600;5.718;2022-10-22T02:55:25;14.57;84.68
68439;SHT31;55421;51.600;5.718;2022-10-22T02:57:51;14.57;84.70
68439;SHT31;55421;51.600;5.718;2022-10-22T03:00:18;14.56;84.65
68439;SHT31;55421;51.600;5.718;2022-10-22T03:02:45;14.54;84.62
68439;SHT31;55421;51.600;5.718;2022-10-22T03:05:11;14.53;84.63
68439;SHT31;55421;51.600;5.718;2022-10-22T03:07:38;14.53;84.65
68439;SHT31;55421;51.600;5.718;2022-10-22T03:10:04;14.55;84.69
68439;SHT31;55421;51.600;5.718;2022-10-22T03:12:31;14.53;84.62
68439;SHT31;55421;51.600;5.718;2022-10-22T03:14:58;14.50;84.69
68439;SHT31;55421;51.600;5.718;2022-10-22T03:17:24;14.45;84.70
68439;SHT31;55421;51.600;5.718;2022-10-22T03:19:51;14.41;84.84
68439;SHT31;55421;51.600;5.718;2022-10-22T03:22:24;14.38;84.96
68439;SHT31;55421;51.600;5.718;2022-10-22T03:24:54;14.36;85.03
68439;SHT31;55421;51.600;5.718;2022-10-22T03:27:27;14.36;85.18
68439;SHT31;55421;51.600;5.718;2022-10-22T03:29:55;14.37;85.20
68439;SHT31;55421;51.600;5.718;2022-10-22T03:32:23;14.36;85.24
68439;SHT31;55421;51.600;5.718;2022-10-22T03:34:50;14.35;85.23
68439;SHT31;55421;51.600;5.718;2022-10-22T03:37:16;14.34;85.29
68439;SHT31;55421;51.600;5.718;2022-10-22T03:39:43;14.31;85.24
68439;SHT31;55421;51.600;5.718;2022-10-22T03:42:10;14.28;85.27
68439;SHT31;55421;51.600;5.718;2022-10-22T03:44:38;14.25;85.30
68439;SHT31;55421;51.600;5.718;2022-10-22T03:47:05;14.25;85.42
68439;SHT31;55421;51.600;5.718;2022-10-22T03:49:32;14.25;85.42
68439;SHT31;55421;51.600;5.718;2022-10-22T03:52:05;14.26;85.44
68439;SHT31;55421;51.600;5.718;2022-10-22T03:54:37;14.28;85.55
68439;SHT31;55421;51.600;5.718;2022-10-22T03:57:05;14.29;85.52
68439;SHT31;55421;51.600;5.718;2022-10-22T03:59:33;14.27;85.55
68439;SHT31;55421;51.600;5.718;2022-10-22T04:02:04;14.26;85.59
68439;SHT31;55421;51.600;5.718;2022-10-22T04:04:31;14.25;85.52
68439;SHT31;55421;51.600;5.718;2022-10-22T04:06:58;14.26;85.52
68439;SHT31;55421;51.600;5.718;2022-10-22T04:09:25;14.27;85.60
68439;SHT31;55421;51.600;5.718;2022-10-22T04:11:51;14.26;85.53
68439;SHT31;55421;51.600;5.718;2022-10-22T04:14:18;14.23;85.53
68439;SHT31;55421;51.600;5.718;2022-10-22T04:16:44;14.20;85.62
68439;SHT31;55421;51.600;5.718;2022-10-22T04:19:12;14.19;85.70
68439;SHT31;55421;51.600;5.718;2022-10-22T04:21:39;14.18;85.70
68439;SHT31;55421;51.600;5.718;2022-10-22T04:24:05;14.19;85.74
68439;SHT31;55421;51.600;5.718;2022-10-22T04:26:32;14.21;85.71
68439;SHT31;55421;51.600;5.718;2022-10-22T04:28:59;14.22;85.63
68439;SHT31;55421;51.600;5.718;2022-10-22T04:31:26;14.20;85.60
68439;SHT31;55421;51.600;5.718;2022-10-22T04:33:53;14.20;85.61
68439;SHT31;55421;51.600;5.718;2022-10-22T04:36:22;14.19;85.57
68439;SHT31;55421;51.600;5.718;2022-10-22T04:38:54;14.18;85.52
68439;SHT31;55421;51.600;5.718;2022-10-22T04:41:27;14.17;85.49
68439;SHT31;55421;51.600;5.718;2022-10-22T04:43:59;14.17;85.53
68439;SHT31;55421;51.600;5.718;2022-10-22T04:46:27;14.15;85.49
68439;SHT31;55421;51.600;5.718;2022-10-22T04:48:57;14.13;85.55
68439;SHT31;55421;51.600;5.718;2022-10-22T04:51:24;14.13;85.58
68439;SHT31;55421;51.600;5.718;2022-10-22T04:53:52;14.14;85.49
68439;SHT31;55421;51.600;5.718;2022-10-22T04:56:21;14.15;85.43
68439;SHT31;55421;51.600;5.718;2022-10-22T04:58:51;14.15;85.49
68439;SHT31;55421;51.600;5.718;2022-10-22T05:01:20;14.14;85.50
68439;SHT31;55421;51.600;5.718;2022-10-22T05:03:54;14.12;85.65
68439;SHT31;55421;51.600;5.718;2022-10-22T05:06:24;14.08;85.71
68439;SHT31;55421;51.600;5.718;2022-10-22T05:08:53;14.05;85.80
68439;SHT31;55421;51.600;5.718;2022-10-22T05:11:24;14.02;85.84
68439;SHT31;55421;51.600;5.718;2022-10-22T05:13:54;14.01;85.98
68439;SHT31;55421;51.600;5.718;2022-10-22T05:16:23;14.01;86.04
68439;SHT31;55421;51.600;5.718;2022-10-22T05:18:50;14.01;86.07
68439;SHT31;55421;51.600;5.718;2022-10-22T05:21:18;14.02;86.12
68439;SHT31;55421;51.600;5.718;2022-10-22T05:23:47;14.01;86.18
68439;SHT31;55421;51.600;5.718;2022-10-22T05:26:17;14.00;86.29
68439;SHT31;55421;51.600;5.718;2022-10-22T05:28:46;14.01;86.36
68439;SHT31;55421;51.600;5.718;2022-10-22T05:31:15;14.03;86.47
68439;SHT31;55421;51.600;5.718;2022-10-22T05:33:43;14.05;86.50
68439;SHT31;55421;51.600;5.718;2022-10-22T05:36:11;14.07;86.40
68439;SHT31;55421;51.600;5.718;2022-10-22T05:38:44;14.08;86.42
68439;SHT31;55421;51.600;5.718;2022-10-22T05:41:13;14.09;86.45
68439;SHT31;55421;51.600;5.718;2022-10-22T05:43:43;14.10;86.45
68439;SHT31;55421;51.600;5.718;2022-10-22T05:46:11;14.11;86.50
68439;SHT31;55421;51.600;5.718;2022-10-22T05:48:41;14.11;86.51
68439;SHT31;55421;51.600;5.718;2022-10-22T05:51:09;14.14;86.59
68439;SHT31;55421;51.600;5.718;2022-10-22T05:53:39;14.18;86.51
68439;SHT31;55421;51.600;5.718;2022-10-22T05:56:10;14.20;86.51
68439;SHT31;55421;51.600;5.718;2022-10-22T05:58:40;14.22;86.50
68439;SHT31;55421;51.600;5.718;2022-10-22T06:01:13;14.23;86.42
68439;SHT31;55421;51.600;5.718;2022-10-22T06:03:53;14.21;86.40
68439;SHT31;55421;51.600;5.718;2022-10-22T06:06:36;14.21;86.39
68439;SHT31;55421;51.600;5.718;2022-10-22T06:09:25;14.20;86.42
68439;SHT31;55421;51.600;5.718;2022-10-22T06:11:56;14.21;86.46
68439;SHT31;55421;51.600;5.718;2022-10-22T06:14:24;14.20;86.41
68439;SHT31;55421;51.600;5.718;2022-10-22T06:16:51;14.21;86.37
68439;SHT31;55421;51.600;5.718;2022-10-22T06:19:19;14.24;86.29
68439;SHT31;55421;51.600;5.718;2022-10-22T06:21:47;14.26;86.22
68439;SHT31;55421;51.600;5.718;2022-10-22T06:24:14;14.29;86.26
68439;SHT31;55421;51.600;5.718;2022-10-22T06:26:41;14.31;86.23
68439;SHT31;55421;51.600;5.718;2022-10-22T06:29:08;14.29;86.10
68439;SHT31;55421;51.600;5.718;2022-10-22T06:31:34;14.28;86.09
68439;SHT31;55421;51.600;5.718;2022-10-22T06:34:05;14.29;86.07
68439;SHT31;55421;51.600;5.718;2022-10-22T06:36:36;14.29;85.96
68439;SHT31;55421;51.600;5.718;2022-10-22T06:39:03;14.28;85.96
68439;SHT31;55421;51.600;5.718;2022-10-22T06:41:30;14.29;86.04
68439;SHT31;55421;51.600;5.718;2022-10-22T06:43:57;14.28;86.03
68439;SHT31;55421;51.600;5.718;2022-10-22T06:46:24;14.29;86.04
68439;SHT31;55421;51.600;5.718;2022-10-22T06:48:55;14.30;86.05
68439;SHT31;55421;51.600;5.718;2022-10-22T06:51:25;14.35;86.00
68439;SHT31;55421;51.600;5.718;2022-10-22T06:53:53;14.40;85.98
68439;SHT31;55421;51.600;5.718;2022-10-22T06:56:22;14.46;85.92
68439;SHT31;55421;51.600;5.718;2022-10-22T06:58:53;14.52;85.91
68439;SHT31;55421;51.600;5.718;2022-10-22T07:01:23;14.57;85.87
68439;SHT31;55421;51.600;5.718;2022-10-22T07:03:53;14.60;85.75
68439;SHT31;55421;51.600;5.718;2022-10-22T07:06:20;14.65;85.70
68439;SHT31;55421;51.600;5.718;2022-10-22T07:08:49;14.71;85.70
68439;SHT31;55421;51.600;5.718;2022-10-22T07:11:17;14.76;85.70
68439;SHT31;55421;51.600;5.718;2022-10-22T07:13:47;14.80;85.58
68439;SHT31;55421;51.600;5.718;2022-10-22T07:16:14;14.80;85.50
68439;SHT31;55421;51.600;5.718;2022-10-22T07:18:42;14.82;85.51
68439;SHT31;55421;51.600;5.718;2022-10-22T07:21:10;14.86;85.46
68439;SHT31;55421;51.600;5.718;2022-10-22T07:23:38;14.89;85.39
68439;SHT31;55421;51.600;5.718;2022-10-22T07:26:06;14.94;85.40
68439;SHT31;55421;51.600;5.718;2022-10-22T07:28:34;14.97;85.27
68439;SHT31;55421;51.600;5.718;2022-10-22T07:31:04;14.97;85.27
68439;SHT31;55421;51.600;5.718;2022-10-22T07:33:32;14.98;85.23
68439;SHT31;55421;51.600;5.718;2022-10-22T07:35:59;14.97;85.11
68439;SHT31;55421;51.600;5.718;2022-10-22T07:38:30;14.99;85.11
68439;SHT31;55421;51.600;5.718;2022-10-22T07:40:57;15.05;85.11
68439;SHT31;55421;51.600;5.718;2022-10-22T07:43:24;15.11;85.09
68439;SHT31;55421;51.600;5.718;2022-10-22T07:45:51;15.16;85.08
68439;SHT31;55421;51.600;5.718;2022-10-22T07:48:21;15.17;84.96
68439;SHT31;55421;51.600;5.718;2022-10-22T07:50:49;15.16;84.90
68439;SHT31;55421;51.600;5.718;2022-10-22T07:53:17;15.15;84.90
68439;SHT31;55421;51.600;5.718;2022-10-22T07:55:48;15.16;84.80
68439;SHT31;55421;51.600;5.718;2022-10-22T07:58:16;15.16;84.75
68439;SHT31;55421;51.600;5.718;2022-10-22T08:00:46;15.18;84.71
68439;SHT31;55421;51.600;5.718;2022-10-22T08:03:14;15.22;84.72
68439;SHT31;55421;51.600;5.718;2022-10-22T08:05:42;15.30;84.80
68439;SHT31;55421;51.600;5.718;2022-10-22T08:08:10;15.40;84.72
68439;SHT31;55421;51.600;5.718;2022-10-22T08:10:38;15.48;84.57
68439;SHT31;55421;51.600;5.718;2022-10-22T08:13:05;15.59;84.42
68439;SHT31;55421;51.600;5.718;2022-10-22T08:15:33;15.69;84.33
68439;SHT31;55421;51.600;5.718;2022-10-22T08:17:59;15.78;84.24
68439;SHT31;55421;51.600;5.718;2022-10-22T08:20:26;15.86;84.11
68439;SHT31;55421;51.600;5.718;2022-10-22T08:22:53;15.94;84.07
68439;SHT31;55421;51.600;5.718;2022-10-22T08:25:19;16.00;83.76
68439;SHT31;55421;51.600;5.718;2022-10-22T08:27:46;16.02;83.54
68439;SHT31;55421;51.600;5.718;2022-10-22T08:30:13;16.03;83.40
68439;SHT31;55421;51.600;5.718;2022-10-22T08:32:40;16.02;83.28
68439;SHT31;55421;51.600;5.718;2022-10-22T08:35:07;15.99;83.23
68439;SHT31;55421;51.600;5.718;2022-10-22T08:37:33;15.99;83.23
68439;SHT31;55421;51.600;5.718;2022-10-22T08:40:00;16.01;83.15
68439;SHT31;55421;51.600;5.718;2022-10-22T08:45:51;16.19;82.99
68439;SHT31;55421;51.600;5.718;2022-10-22T08:48:54;16.34;82.72
68439;SHT31;55421;51.600;5.718;2022-10-22T08:51:34;16.37;82.55
68439;SHT31;55421;51.600;5.718;2022-10-22T08:54:26;16.36;82.42
68439;SHT31;55421;51.600;5.718;2022-10-22T08:59:43;16.37;82.20
68439;SHT31;55421;51.600;5.718;2022-10-22T09:08:08;16.55;81.82
68439;SHT31;55421;51.600;5.718;2022-10-22T09:10:47;16.56;81.59
68439;SHT31;55421;51.600;5.718;2022-10-22T09:13:36;16.64;81.45
68439;SHT31;55421;51.600;5.718;2022-10-22T09:19:02;16.75;81.19
68439;SHT31;55421;51.600;5.718;2022-10-22T09:21:52;16.78;81.05
68439;SHT31;55421;51.600;5.718;2022-10-22T09:24:43;16.77;80.90
68439;SHT31;55421;51.600;5.718;2022-10-22T09:27:17;16.73;80.73
68439;SHT31;55421;51.600;5.718;2022-10-22T09:29:48;16.73;80.71
68439;SHT31;55421;51.600;5.718;2022-10-22T09:32:15;16.72;80.70
68439;SHT31;55421;51.600;5.718;2022-10-22T09:34:43;16.73;80.75
68439;SHT31;55421;51.600;5.718;2022-10-22T09:37:11;16.73;80.79
68439;SHT31;55421;51.600;5.718;2022-10-22T09:39:44;16.73;80.75
68439;SHT31;55421;51.600;5.718;2022-10-22T09:42:16;16.70;80.67
68439;SHT31;55421;51.600;5.718;2022-10-22T09:44:52;16.70;80.78
68439;SHT31;55421;51.600;5.718;2022-10-22T09:47:33;16.73;80.72
68439;SHT31;55421;51.600;5.718;2022-10-22T09:50:17;16.72;80.58
68439;SHT31;55421;51.600;5.718;2022-10-22T09:52:58;16.71;80.57
68439;SHT31;55421;51.600;5.718;2022-10-22T09:55:57;16.70;80.50
68439;SHT31;55421;51.600;5.718;2022-10-22T09:58:26;16.69;80.46
68439;SHT31;55421;51.600;5.718;2022-10-22T10:00:55;16.70;80.50
68439;SHT31;55421;51.600;5.718;2022-10-22T10:03:26;16.76;80.46
68439;SHT31;55421;51.600;5.718;2022-10-22T10:05:58;16.81;80.38
68439;SHT31;55421;51.600;5.718;2022-10-22T10:08:25;16.85;80.29
68439;SHT31;55421;51.600;5.718;2022-10-22T10:10:56;16.88;80.32
68439;SHT31;55421;51.600;5.718;2022-10-22T10:16:51;17.01;80.29
68439;SHT31;55421;51.600;5.718;2022-10-22T10:22:24;17.17;80.06
68439;SHT31;55421;51.600;5.718;2022-10-22T10:25:27;17.20;79.72
68439;SHT31;55421;51.600;5.718;2022-10-22T10:28:32;17.21;79.66
68439;SHT31;55421;51.600;5.718;2022-10-22T10:33:58;17.19;79.60
68439;SHT31;55421;51.600;5.718;2022-10-22T10:39:53;17.24;79.54
68439;SHT31;55421;51.600;5.718;2022-10-22T10:42:43;17.25;79.40
68439;SHT31;55421;51.600;5.718;2022-10-22T10:45:31;17.26;79.13
68439;SHT31;55421;51.600;5.718;2022-10-22T10:48:36;17.41;79.23
68439;SHT31;55421;51.600;5.718;2022-10-22T10:54:44;17.59;78.70
68439;SHT31;55421;51.600;5.718;2022-10-22T11:00:53;17.66;78.10
68439;SHT31;55421;51.600;5.718;2022-10-22T11:06:13;17.78;77.87
68439;SHT31;55421;51.600;5.718;2022-10-22T11:08:46;17.89;77.61
68439;SHT31;55421;51.600;5.718;2022-10-22T11:11:32;17.87;77.77
68439;SHT31;55421;51.600;5.718;2022-10-22T11:14:30;17.86;77.96
68439;SHT31;55421;51.600;5.718;2022-10-22T11:17:10;17.84;77.55
68439;SHT31;55421;51.600;5.718;2022-10-22T11:19:50;17.84;77.48
68439;SHT31;55421;51.600;5.718;2022-10-22T11:22:30;17.86;77.30
68439;SHT31;55421;51.600;5.718;2022-10-22T11:27:46;17.93;77.01
68439;SHT31;55421;51.600;5.718;2022-10-22T11:30:20;17.98;76.76
68439;SHT31;55421;51.600;5.718;2022-10-22T11:32:54;18.04;76.95
68439;SHT31;55421;51.600;5.718;2022-10-22T11:35:29;18.12;76.73
68439;SHT31;55421;51.600;5.718;2022-10-22T11:38:00;18.19;76.46
68439;SHT31;55421;51.600;5.718;2022-10-22T11:40:31;18.27;76.59
68439;SHT31;55421;51.600;5.718;2022-10-22T11:43:07;18.34;76.19
68439;SHT31;55421;51.600;5.718;2022-10-22T11:45:56;18.40;75.84
68439;SHT31;55421;51.600;5.718;2022-10-22T11:48:35;18.53;75.71
68439;SHT31;55421;51.600;5.718;2022-10-22T11:51:03;18.64;75.47
68439;SHT31;55421;51.600;5.718;2022-10-22T11:54:49;18.69;75.23
68439;SHT31;55421;51.600;5.718;2022-10-22T12:04:54;18.67;74.46
68439;SHT31;55421;51.600;5.718;2022-10-22T12:07:52;18.70;74.14
68439;SHT31;55421;51.600;5.718;2022-10-22T12:10:33;18.75;73.95
68439;SHT31;55421;51.600;5.718;2022-10-22T12:13:19;18.78;73.59
68439;SHT31;55421;51.600;5.718;2022-10-22T12:15:53;18.78;73.38
68439;SHT31;55421;51.600;5.718;2022-10-22T12:18:29;18.77;73.30
68439;SHT31;55421;51.600;5.718;2022-10-22T12:21:11;18.73;73.20
68439;SHT31;55421;51.600;5.718;2022-10-22T12:23:40;18.69;72.81
68439;SHT31;55421;51.600;5.718;2022-10-22T12:26:23;18.62;72.87
68439;SHT31;55421;51.600;5.718;2022-10-22T12:28:56;18.65;73.28
68439;SHT31;55421;51.600;5.718;2022-10-22T12:31:27;18.77;73.58
68439;SHT31;55421;51.600;5.718;2022-10-22T12:34:02;18.81;73.40
68439;SHT31;55421;51.600;5.718;2022-10-22T12:36:31;18.84;73.35
68439;SHT31;55421;51.600;5.718;2022-10-22T12:39:02;18.84;73.24
68439;SHT31;55421;51.600;5.718;2022-10-22T12:41:39;18.86;73.25
68439;SHT31;55421;51.600;5.718;2022-10-22T12:44:09;18.83;72.73
68439;SHT31;55421;51.600;5.718;2022-10-22T12:46:39;18.78;72.45
68439;SHT31;55421;51.600;5.718;2022-10-22T12:49:16;18.74;72.83
68439;SHT31;55421;51.600;5.718;2022-10-22T12:51:46;18.72;72.88
68439;SHT31;55421;51.600;5.718;2022-10-22T12:56:54;18.68;73.14
68439;SHT31;55421;51.600;5.718;2022-10-22T12:59:26;18.68;73.24
68439;SHT31;55421;51.600;5.718;2022-10-22T13:01:58;18.74;73.31
68439;SHT31;55421;51.600;5.718;2022-10-22T13:07:03;18.90;73.32
68439;SHT31;55421;51.600;5.718;2022-10-22T13:09:42;18.96;73.20
68439;SHT31;55421;51.600;5.718;2022-10-22T13:12:13;18.96;72.89
68439;SHT31;55421;51.600;5.718;2022-10-22T13:14:42;18.96;72.80
68439;SHT31;55421;51.600;5.718;2022-10-22T13:17:15;18.92;72.42
68439;SHT31;55421;51.600;5.718;2022-10-22T13:19:49;18.97;72.24
68439;SHT31;55421;51.600;5.718;2022-10-22T13:27:44;19.20;71.80
68439;SHT31;55421;51.600;5.718;2022-10-22T13:30:18;19.24;71.69
68439;SHT31;55421;51.600;5.718;2022-10-22T13:32:50;19.30;71.62
68439;SHT31;55421;51.600;5.718;2022-10-22T13:35:22;19.33;71.46
68439;SHT31;55421;51.600;5.718;2022-10-22T13:37:53;19.35;71.03
68439;SHT31;55421;51.600;5.718;2022-10-22T13:40:20;19.36;70.60
68439;SHT31;55421;51.600;5.718;2022-10-22T13:42:47;19.39;70.17
68439;SHT31;55421;51.600;5.718;2022-10-22T13:45:13;19.37;70.16
68439;SHT31;55421;51.600;5.718;2022-10-22T13:47:41;19.35;70.42
68439;SHT31;55421;51.600;5.718;2022-10-22T13:50:15;19.32;70.77
68439;SHT31;55421;51.600;5.718;2022-10-22T13:52:54;19.28;70.84
68439;SHT31;55421;51.600;5.718;2022-10-22T13:55:27;19.18;70.90
68439;SHT31;55421;51.600;5.718;2022-10-22T13:57:56;19.10;71.01
68439;SHT31;55421;51.600;5.718;2022-10-22T14:00:45;19.05;71.18
68439;SHT31;55421;51.600;5.718;2022-10-22T14:03:18;19.02;71.46
68439;SHT31;55421;51.600;5.718;2022-10-22T14:05:48;18.99;71.59
68439;SHT31;55421;51.600;5.718;2022-10-22T14:08:15;19.00;71.72
68439;SHT31;55421;51.600;5.718;2022-10-22T14:10:46;19.02;71.96
68439;SHT31;55421;51.600;5.718;2022-10-22T14:13:15;19.03;71.64
68439;SHT31;55421;51.600;5.718;2022-10-22T14:15:43;19.01;71.62
68439;SHT31;55421;51.600;5.718;2022-10-22T14:18:20;18.98;71.45
68439;SHT31;55421;51.600;5.718;2022-10-22T14:20:53;18.95;71.36
68439;SHT31;55421;51.600;5.718;2022-10-22T14:23:24;18.90;71.28
68439;SHT31;55421;51.600;5.718;2022-10-22T14:25:54;18.83;71.23
68439;SHT31;55421;51.600;5.718;2022-10-22T14:28:21;18.78;71.15
68439;SHT31;55421;51.600;5.718;2022-10-22T14:30:48;18.76;71.22
68439;SHT31;55421;51.600;5.718;2022-10-22T14:33:23;18.74;71.39
68439;SHT31;55421;51.600;5.718;2022-10-22T14:35:53;18.70;71.50
68439;SHT31;55421;51.600;5.718;2022-10-22T14:38:20;18.66;71.45
68439;SHT31;55421;51.600;5.718;2022-10-22T14:40:47;18.63;71.63
68439;SHT31;55421;51.600;5.718;2022-10-22T14:45:54;18.61;71.77
68439;SHT31;55421;51.600;5.718;2022-10-22T14:48:21;18.60;71.64
68439;SHT31;55421;51.600;5.718;2022-10-22T14:50:48;18.63;71.44
68439;SHT31;55421;51.600;5.718;2022-10-22T14:53:14;18.68;71.41
68439;SHT31;55421;51.600;5.718;2022-10-22T14:55:42;18.72;71.41
68439;SHT31;55421;51.600;5.718;2022-10-22T14:58:12;18.77;71.38
68439;SHT31;55421;51.600;5.718;2022-10-22T15:00:39;18.81;71.50
68439;SHT31;55421;51.600;5.718;2022-10-22T15:03:08;18.83;71.39
68439;SHT31;55421;51.600;5.718;2022-10-22T15:05:35;18.83;71.34
68439;SHT31;55421;51.600;5.718;2022-10-22T15:08:11;18.83;71.53
68439;SHT31;55421;51.600;5.718;2022-10-22T15:10:39;18.82;71.48
68439;SHT31;55421;51.600;5.718;2022-10-22T15:13:06;18.80;71.49
68439;SHT31;55421;51.600;5.718;2022-10-22T15:15:33;18.80;71.55
68439;SHT31;55421;51.600;5.718;2022-10-22T15:17:59;18.78;71.57
68439;SHT31;55421;51.600;5.718;2022-10-22T15:20:25;18.77;71.58
68439;SHT31;55421;51.600;5.718;2022-10-22T15:22:52;18.74;71.62
68439;SHT31;55421;51.600;5.718;2022-10-22T15:25:18;18.70;71.68
68439;SHT31;55421;51.600;5.718;2022-10-22T15:27:45;18.65;71.71
68439;SHT31;55421;51.600;5.718;2022-10-22T15:30:11;18.61;71.93
68439;SHT31;55421;51.600;5.718;2022-10-22T15:32:39;18.56;72.06
68439;SHT31;55421;51.600;5.718;2022-10-22T15:35:05;18.49;72.06
68439;SHT31;55421;51.600;5.718;2022-10-22T15:37:33;18.42;72.03
68439;SHT31;55421;51.600;5.718;2022-10-22T15:39:59;18.38;72.12
68439;SHT31;55421;51.600;5.718;2022-10-22T15:42:26;18.37;72.25
68439;SHT31;55421;51.600;5.718;2022-10-22T15:44:58;18.34;72.34
68439;SHT31;55421;51.600;5.718;2022-10-22T15:47:25;18.31;72.39
68439;SHT31;55421;51.600;5.718;2022-10-22T15:49:54;18.27;72.42
68439;SHT31;55421;51.600;5.718;2022-10-22T15:52:20;18.22;72.45
68439;SHT31;55421;51.600;5.718;2022-10-22T15:54:47;18.16;72.61
68439;SHT31;55421;51.600;5.718;2022-10-22T15:57:14;18.09;72.71
68439;SHT31;55421;51.600;5.718;2022-10-22T15:59:41;18.02;72.85
68439;SHT31;55421;51.600;5.718;2022-10-22T16:02:08;17.95;72.97
68439;SHT31;55421;51.600;5.718;2022-10-22T16:04:36;17.90;73.03
68439;SHT31;55421;51.600;5.718;2022-10-22T16:07:04;17.87;73.10
68439;SHT31;55421;51.600;5.718;2022-10-22T16:09:34;17.83;73.19
68439;SHT31;55421;51.600;5.718;2022-10-22T16:12:00;17.80;73.31
68439;SHT31;55421;51.600;5.718;2022-10-22T16:14:27;17.76;73.41
68439;SHT31;55421;51.600;5.718;2022-10-22T16:16:54;17.69;73.51
68439;SHT31;55421;51.600;5.718;2022-10-22T16:19:21;17.62;73.52
68439;SHT31;55421;51.600;5.718;2022-10-22T16:21:50;17.54;73.69
68439;SHT31;55421;51.600;5.718;2022-10-22T16:24:19;17.49;73.82
68439;SHT31;55421;51.600;5.718;2022-10-22T16:26:47;17.46;73.86
68439;SHT31;55421;51.600;5.718;2022-10-22T16:29:14;17.43;74.00
68439;SHT31;55421;51.600;5.718;2022-10-22T16:31:41;17.40;74.16
68439;SHT31;55421;51.600;5.718;2022-10-22T16:34:09;17.37;74.25
68439;SHT31;55421;51.600;5.718;2022-10-22T16:36:35;17.31;74.31
68439;SHT31;55421;51.600;5.718;2022-10-22T16:39:04;17.25;74.47
68439;SHT31;55421;51.600;5.718;2022-10-22T16:41:31;17.17;74.68
68439;SHT31;55421;51.600;5.718;2022-10-22T16:44:00;17.11;74.80
68439;SHT31;55421;51.600;5.718;2022-10-22T16:46:31;17.05;74.92
68439;SHT31;55421;51.600;5.718;2022-10-22T16:48:59;17.01;75.01
68439;SHT31;55421;51.600;5.718;2022-10-22T16:51:26;16.97;75.19
68439;SHT31;55421;51.600;5.718;2022-10-22T16:53:54;16.94;75.35
68439;SHT31;55421;51.600;5.718;2022-10-22T16:56:23;16.89;75.40
68439;SHT31;55421;51.600;5.718;2022-10-22T16:58:51;16.86;75.52
68439;SHT31;55421;51.600;5.718;2022-10-22T17:01:22;16.83;75.58
68439;SHT31;55421;51.600;5.718;2022-10-22T17:03:51;16.77;75.61
68439;SHT31;55421;51.600;5.718;2022-10-22T17:06:20;16.72;75.76
68439;SHT31;55421;51.600;5.718;2022-10-22T17:08:48;16.70;75.89
68439;SHT31;55421;51.600;5.718;2022-10-22T17:11:16;16.68;75.92
68439;SHT31;55421;51.600;5.718;2022-10-22T17:13:47;16.65;75.94
68439;SHT31;55421;51.600;5.718;2022-10-22T17:16:18;16.61;75.86
68439;SHT31;55421;51.600;5.718;2022-10-22T17:18:48;16.55;75.93
68439;SHT31;55421;51.600;5.718;2022-10-22T17:21:15;16.49;76.00
68439;SHT31;55421;51.600;5.718;2022-10-22T17:23:43;16.43;76.12